createdAt,value
2019-03-22T00:00:12.693Z,4.35
2019-03-22T00:02:41.479Z,4.38
2019-03-22T00:05:10.269Z,4.37
2019-03-22T00:07:39.057Z,4.39
2019-03-22T00:10:07.845Z,4.40
2019-03-22T00:12:36.634Z,4.28
2019-03-22T00:15:08.702Z,4.45
2019-03-22T00:17:37.486Z,4.51
2019-03-22T00:20:07.604Z,4.45
2019-03-22T00:22:36.292Z,4.53
2019-03-22T00:25:06.512Z,4.56
2019-03-22T00:27:35.301Z,4.64
2019-03-22T00:30:08.391Z,4.61
2019-03-22T00:32:37.177Z,4.62
2019-03-22T00:35:07.399Z,4.83
2019-03-22T00:37:36.188Z,4.97
2019-03-22T00:40:09.382Z,4.98
2019-03-22T00:42:38.166Z,4.97
2019-03-22T00:45:08.389Z,5.09
2019-03-22T00:47:37.074Z,5.08
2019-03-22T00:50:07.402Z,5.09
2019-03-22T00:52:36.084Z,5.20
2019-03-22T00:55:06.408Z,5.27
2019-03-22T00:57:35.094Z,5.18
2019-03-22T01:00:12.537Z,5.20
2019-03-22T01:02:41.478Z,5.29
2019-03-22T01:05:10.902Z,5.42
2019-03-22T01:07:39.591Z,5.49
2019-03-22T01:10:13.054Z,5.81
2019-03-22T01:12:41.748Z,5.80
2019-03-22T01:15:12.845Z,5.83
2019-03-22T01:17:42.294Z,5.83
2019-03-22T01:20:12.412Z,5.68
2019-03-22T01:22:41.509Z,5.75
2019-03-22T01:25:10.903Z,5.74
2019-03-22T01:27:41.046Z,5.84
2019-03-22T01:30:18.658Z,5.87
2019-03-22T01:32:47.313Z,5.89
2019-03-22T01:35:15.907Z,5.90
2019-03-22T01:37:44.602Z,5.88
2019-03-22T01:40:17.573Z,5.96
2019-03-22T01:42:46.354Z,5.95
2019-03-22T01:45:16.167Z,6.03
2019-03-22T01:47:44.853Z,6.08
2019-03-22T01:50:18.492Z,6.16
2019-03-22T01:52:47.242Z,6.15
2019-03-22T01:55:15.826Z,6.20
2019-03-22T01:57:53.123Z,6.28
2019-03-22T02:00:16.272Z,6.22
2019-03-22T02:02:45.160Z,6.24
2019-03-22T02:05:13.847Z,6.32
2019-03-22T02:07:42.838Z,6.29
2019-03-22T02:10:12.688Z,6.25
2019-03-22T02:12:41.445Z,6.37
2019-03-22T02:15:15.640Z,6.56
2019-03-22T02:17:44.648Z,6.54
2019-03-22T02:20:15.176Z,6.39
2019-03-22T02:22:43.968Z,6.31
2019-03-22T02:25:13.170Z,6.38
2019-03-22T02:27:43.613Z,6.48
2019-03-22T02:30:14.728Z,6.47
2019-03-22T02:32:43.412Z,6.56
2019-03-22T02:35:27.408Z,6.54
2019-03-22T02:37:42.634Z,6.51
2019-03-22T02:40:12.671Z,6.61
2019-03-22T02:42:41.472Z,6.64
2019-03-22T02:45:12.073Z,6.56
2019-03-22T02:47:40.765Z,6.64
2019-03-22T02:50:18.690Z,6.74
2019-03-22T02:52:44.435Z,6.80
2019-03-22T02:55:14.622Z,6.80
2019-03-22T02:57:43.260Z,6.81
2019-03-22T03:00:16.292Z,6.98
2019-03-22T03:02:44.962Z,7.01
2019-03-22T03:05:14.274Z,6.99
2019-03-22T03:07:42.958Z,6.96
2019-03-22T03:10:16.327Z,6.91
2019-03-22T03:12:45.430Z,6.98
2019-03-22T03:15:18.195Z,6.95
2019-03-22T03:17:47.006Z,7.17
2019-03-22T03:20:17.767Z,7.06
2019-03-22T03:22:46.587Z,7.04
2019-03-22T03:25:16.558Z,7.09
2019-03-22T03:27:45.348Z,7.09
2019-03-22T03:30:20.863Z,7.14
2019-03-22T03:32:49.571Z,7.15
2019-03-22T03:35:18.739Z,7.17
2019-03-22T03:37:47.759Z,7.21
2019-03-22T03:40:16.872Z,7.23
2019-03-22T03:42:45.654Z,7.27
2019-03-22T03:45:37.160Z,7.42
2019-03-22T03:48:08.820Z,7.59
2019-03-22T03:50:37.447Z,7.36
2019-03-22T03:53:06.783Z,7.39
2019-03-22T03:55:35.500Z,7.62
2019-03-22T03:58:04.822Z,7.47
2019-03-22T04:00:33.674Z,7.53
2019-03-22T04:03:02.359Z,7.55
2019-03-22T04:05:31.148Z,7.56
2019-03-22T04:07:59.936Z,7.53
2019-03-22T04:10:28.612Z,7.63
2019-03-22T04:12:57.309Z,7.40
2019-03-22T04:15:26.097Z,7.36
2019-03-22T04:17:54.780Z,7.46
2019-03-22T04:20:23.569Z,7.75
2019-03-22T04:22:52.358Z,7.58
2019-03-22T04:25:21.060Z,7.57
2019-03-22T04:27:49.934Z,7.60
2019-03-22T04:30:18.600Z,7.69
2019-03-22T04:32:47.205Z,7.61
2019-03-22T04:35:15.995Z,7.58
2019-03-22T04:37:44.584Z,7.53
2019-03-22T04:40:25.249Z,7.62
2019-03-22T04:42:54.036Z,7.59
2019-03-22T04:45:23.844Z,7.80
2019-03-22T04:47:58.680Z,7.81
2019-03-22T04:50:28.436Z,7.95
2019-03-22T04:52:57.539Z,7.96
2019-03-22T04:55:26.264Z,7.94
2019-03-22T04:57:55.770Z,7.97
2019-03-22T05:00:24.821Z,7.98
2019-03-22T05:02:54.301Z,7.89
2019-03-22T05:05:23.465Z,7.99
2019-03-22T05:07:52.765Z,8.12
2019-03-22T05:10:21.867Z,8.06
2019-03-22T05:12:51.076Z,8.02
2019-03-22T05:15:20.460Z,7.95
2019-03-22T05:17:49.760Z,7.93
2019-03-22T05:20:19.062Z,8.11
2019-03-22T05:22:47.893Z,8.16
2019-03-22T05:25:17.151Z,8.25
2019-03-22T05:27:46.151Z,7.98
2019-03-22T05:30:46.883Z,7.99
2019-03-22T05:33:15.567Z,8.03
2019-03-22T05:35:44.353Z,8.23
2019-03-22T05:38:13.038Z,8.24
2019-03-22T05:40:43.366Z,8.11
2019-03-22T05:43:12.050Z,8.21
2019-03-22T05:45:40.735Z,8.21
2019-03-22T05:48:09.421Z,8.44
2019-03-22T05:50:38.013Z,8.26
2019-03-22T05:53:06.690Z,8.27
2019-03-22T05:55:35.582Z,8.38
2019-03-22T05:58:04.267Z,8.24
2019-03-22T06:00:32.953Z,8.37
2019-03-22T06:03:01.642Z,8.52
2019-03-22T06:05:30.424Z,8.56
2019-03-22T06:07:59.111Z,8.61
2019-03-22T06:10:27.799Z,8.64
2019-03-22T06:12:56.483Z,8.57
2019-03-22T06:15:25.271Z,8.52
2019-03-22T06:17:53.928Z,8.62
2019-03-22T06:20:22.540Z,8.61
2019-03-22T06:22:51.203Z,8.61
2019-03-22T06:25:19.810Z,8.60
2019-03-22T06:27:48.495Z,8.55
2019-03-22T06:30:17.181Z,8.59
2019-03-22T06:32:45.765Z,8.63
2019-03-22T06:35:14.462Z,8.71
2019-03-22T06:37:43.136Z,8.89
2019-03-22T06:40:12.335Z,8.79
2019-03-22T06:42:41.022Z,8.92
2019-03-22T06:45:10.322Z,8.88
2019-03-22T06:47:38.983Z,8.96
2019-03-22T06:50:08.103Z,8.91
2019-03-22T06:52:36.687Z,9.02
2019-03-22T06:55:08.647Z,9.02
2019-03-22T06:57:37.331Z,9.18
2019-03-22T07:00:11.567Z,9.17
2019-03-22T07:02:40.204Z,9.11
2019-03-22T07:05:08.920Z,9.19
2019-03-22T07:07:37.609Z,9.27
2019-03-22T07:10:07.007Z,9.61
2019-03-22T07:12:35.694Z,9.65
2019-03-22T07:15:06.114Z,9.59
2019-03-22T07:17:34.806Z,9.44
2019-03-22T07:20:03.911Z,9.31
2019-03-22T07:22:32.690Z,9.25
2019-03-22T07:25:01.377Z,9.27
2019-03-22T07:27:30.163Z,9.33
2019-03-22T07:29:58.746Z,9.42
2019-03-22T07:32:27.426Z,9.37
2019-03-22T07:34:56.121Z,9.44
2019-03-22T07:37:24.815Z,9.61
2019-03-22T07:39:53.359Z,9.55
2019-03-22T07:42:22.072Z,9.55
2019-03-22T07:44:50.758Z,9.69
2019-03-22T07:47:19.547Z,9.97
2019-03-22T07:49:48.234Z,10.19
2019-03-22T07:52:16.918Z,9.93
2019-03-22T07:54:45.504Z,9.70
2019-03-22T07:57:14.210Z,9.73
2019-03-22T07:59:42.917Z,9.74
2019-03-22T08:02:11.723Z,9.79
2019-03-22T08:04:40.328Z,9.70
2019-03-22T08:07:09.915Z,9.76
2019-03-22T08:09:38.780Z,9.96
2019-03-22T08:12:07.550Z,10.09
2019-03-22T08:14:36.216Z,9.98
2019-03-22T08:17:04.881Z,10.00
2019-03-22T08:19:33.589Z,10.02
2019-03-22T08:22:03.413Z,10.12
2019-03-22T08:24:32.002Z,10.04
2019-03-22T08:27:00.810Z,10.05
2019-03-22T08:29:29.467Z,10.14
2019-03-22T08:31:58.043Z,10.12
2019-03-22T08:34:26.852Z,10.21
2019-03-22T08:36:55.695Z,10.23
2019-03-22T08:39:24.304Z,10.23
2019-03-22T08:41:52.990Z,10.16
2019-03-22T08:44:21.780Z,10.29
2019-03-22T08:46:50.567Z,10.27
2019-03-22T08:49:19.325Z,10.18
2019-03-22T08:51:49.696Z,9.92
2019-03-22T08:54:18.671Z,10.13
2019-03-22T08:56:47.372Z,10.30
2019-03-22T08:59:16.028Z,10.14
2019-03-22T09:01:44.683Z,10.10
2019-03-22T09:04:13.415Z,10.32
2019-03-22T09:06:42.237Z,10.16
2019-03-22T09:09:10.905Z,10.26
2019-03-22T09:11:39.578Z,10.17
2019-03-22T09:14:08.260Z,10.04
2019-03-22T09:16:37.005Z,10.05
2019-03-22T09:19:05.625Z,10.14
2019-03-22T09:21:34.226Z,10.28
2019-03-22T09:24:03.004Z,10.24
2019-03-22T09:26:31.692Z,10.26
2019-03-22T09:29:00.378Z,10.45
2019-03-22T09:31:29.166Z,10.18
2019-03-22T09:33:57.904Z,10.41
2019-03-22T09:36:26.557Z,10.55
2019-03-22T09:38:55.412Z,10.32
2019-03-22T09:41:24.138Z,10.45
2019-03-22T09:43:52.934Z,10.52
2019-03-22T09:46:21.618Z,10.66
2019-03-22T09:48:50.299Z,10.44
2019-03-22T09:51:19.067Z,10.45
2019-03-22T09:53:47.958Z,10.42
2019-03-22T09:56:16.748Z,10.49
2019-03-22T09:58:45.431Z,10.55
2019-03-22T10:01:23.684Z,10.82
2019-03-22T10:03:45.055Z,10.76
2019-03-22T10:06:13.746Z,10.20
2019-03-22T10:08:42.631Z,10.35
2019-03-22T10:11:11.337Z,10.62
2019-03-22T10:13:40.162Z,10.62
2019-03-22T10:16:08.892Z,10.89
2019-03-22T10:18:37.713Z,10.76
2019-03-22T10:21:06.467Z,10.26
2019-03-22T10:23:35.154Z,10.74
2019-03-22T10:26:03.840Z,10.97
2019-03-22T10:28:32.658Z,11.17
2019-03-22T10:31:01.368Z,10.88
2019-03-22T10:33:30.203Z,10.84
2019-03-22T10:35:58.917Z,10.84
2019-03-22T10:38:31.908Z,10.70
2019-03-22T10:40:58.002Z,10.78
2019-03-22T10:43:26.686Z,10.52
2019-03-22T10:45:55.300Z,10.82
2019-03-22T10:48:23.955Z,11.00
2019-03-22T10:50:52.640Z,11.10
2019-03-22T10:53:21.329Z,11.18
2019-03-22T10:55:50.136Z,11.33
2019-03-22T10:58:21.354Z,11.31
2019-03-22T11:00:49.226Z,11.20
2019-03-22T11:03:18.014Z,11.19
2019-03-22T11:05:46.801Z,11.31
2019-03-22T11:08:15.589Z,11.18
2019-03-22T11:10:44.175Z,11.29
2019-03-22T11:13:12.962Z,11.47
2019-03-22T11:15:48.386Z,11.54
2019-03-22T11:18:12.153Z,11.39
2019-03-22T11:20:40.861Z,11.38
2019-03-22T11:23:09.650Z,11.30
2019-03-22T11:25:38.238Z,11.27
2019-03-22T11:28:07.020Z,11.39
2019-03-22T11:30:35.808Z,11.36
2019-03-22T11:33:04.700Z,11.31
2019-03-22T11:35:33.486Z,11.48
2019-03-22T11:38:02.284Z,11.42
2019-03-22T11:40:30.960Z,11.13
2019-03-22T11:43:08.241Z,11.43
2019-03-22T11:45:29.971Z,11.57
2019-03-22T11:48:00.539Z,11.00
2019-03-22T11:50:29.595Z,11.02
2019-03-22T11:52:58.282Z,11.30
2019-03-22T11:55:26.971Z,11.53
2019-03-22T11:57:55.630Z,11.61
2019-03-22T12:00:27.516Z,11.90
2019-03-22T12:02:56.402Z,11.82
2019-03-22T12:05:26.222Z,11.15
2019-03-22T12:07:54.901Z,11.51
2019-03-22T12:10:23.810Z,11.47
2019-03-22T12:12:52.796Z,11.71
2019-03-22T12:15:23.108Z,12.03
2019-03-22T12:17:51.905Z,11.85
2019-03-22T12:20:22.427Z,11.99
2019-03-22T12:22:51.400Z,11.87
2019-03-22T12:25:24.800Z,11.70
2019-03-22T12:27:53.602Z,11.64
2019-03-22T12:30:22.392Z,11.91
2019-03-22T12:32:51.077Z,11.85
2019-03-22T12:35:20.171Z,12.23
2019-03-22T12:37:49.168Z,12.24
2019-03-22T12:40:22.464Z,12.18
2019-03-22T12:42:51.261Z,12.07
2019-03-22T12:45:25.155Z,12.17
2019-03-22T12:47:54.157Z,12.44
2019-03-22T12:50:25.430Z,12.25
2019-03-22T12:52:54.285Z,12.41
2019-03-22T12:55:22.970Z,12.41
2019-03-22T12:57:51.759Z,12.39
2019-03-22T13:00:26.922Z,12.21
2019-03-22T13:02:55.991Z,12.58
2019-03-22T13:05:24.782Z,12.71
2019-03-22T13:07:53.877Z,12.31
2019-03-22T13:10:25.841Z,12.76
2019-03-22T13:12:54.526Z,12.03
2019-03-22T13:15:23.109Z,12.61
2019-03-22T13:17:51.793Z,13.30
2019-03-22T13:20:20.584Z,12.31
2019-03-22T13:22:49.265Z,13.21
2019-03-22T13:25:21.113Z,13.24
2019-03-22T13:27:49.301Z,13.06
2019-03-22T13:30:34.472Z,13.06
2019-03-22T13:33:03.774Z,13.20
2019-03-22T13:35:32.560Z,14.11
2019-03-22T13:38:02.782Z,14.29
2019-03-22T13:40:31.571Z,14.13
2019-03-22T13:43:00.357Z,14.09
2019-03-22T13:45:28.935Z,13.70
2019-03-22T13:47:57.733Z,13.60
2019-03-22T13:50:27.982Z,13.35
2019-03-22T13:52:56.740Z,12.90
2019-03-22T13:55:26.450Z,12.86
2019-03-22T13:57:55.206Z,13.68
2019-03-22T14:00:24.025Z,14.22
2019-03-22T14:03:02.592Z,14.29
2019-03-22T14:05:23.136Z,16.25
2019-03-22T14:07:51.822Z,15.90
2019-03-22T14:10:31.330Z,14.41
2019-03-22T14:13:01.402Z,13.95
2019-03-22T14:15:30.077Z,13.85
2019-03-22T14:17:59.163Z,13.78
2019-03-22T14:20:27.949Z,13.63
2019-03-22T14:22:56.640Z,13.96
2019-03-22T14:25:26.831Z,13.40
2019-03-22T14:27:55.543Z,13.79
2019-03-22T14:30:24.240Z,13.76
2019-03-22T14:32:52.922Z,13.14
2019-03-22T14:35:21.702Z,12.90
2019-03-22T14:37:50.490Z,13.20
2019-03-22T14:40:19.381Z,13.53
2019-03-22T14:42:48.068Z,13.69
2019-03-22T14:45:16.859Z,13.14
2019-03-22T14:47:45.644Z,13.58
2019-03-22T14:50:14.431Z,13.18
2019-03-22T14:52:45.575Z,13.21
2019-03-22T14:55:14.363Z,13.10
2019-03-22T14:57:49.187Z,13.28
2019-03-22T15:00:15.934Z,13.44
2019-03-22T15:02:44.855Z,12.71
2019-03-22T15:05:13.613Z,12.08
2019-03-22T15:07:42.606Z,12.33
2019-03-22T15:10:13.374Z,12.20
2019-03-22T15:12:42.129Z,12.07
2019-03-22T15:15:21.876Z,12.24
2019-03-22T15:17:55.474Z,12.58
2019-03-22T15:20:26.049Z,12.64
2019-03-22T15:23:13.555Z,12.57
2019-03-22T15:26:00.549Z,12.10
2019-03-22T15:28:46.588Z,12.08
2019-03-22T15:31:17.172Z,12.12
2019-03-22T15:36:35.737Z,11.84
2019-03-22T15:39:09.132Z,11.70
2019-03-22T15:41:38.027Z,11.54
2019-03-22T15:44:06.870Z,11.63
2019-03-22T15:46:35.703Z,11.80
2019-03-22T15:49:04.494Z,11.92
2019-03-22T15:51:33.282Z,12.07
2019-03-22T15:54:01.964Z,11.95
2019-03-22T15:56:30.773Z,11.81
2019-03-22T15:58:59.438Z,11.66
2019-03-22T16:01:28.125Z,11.82
2019-03-22T16:03:58.555Z,11.91
2019-03-22T16:06:27.338Z,11.57
2019-03-22T16:08:56.741Z,11.47
2019-03-22T16:11:25.533Z,11.71
2019-03-22T16:13:54.143Z,11.61
2019-03-22T16:16:22.903Z,11.43
2019-03-22T16:18:51.587Z,11.33
2019-03-22T16:21:20.375Z,11.24
2019-03-22T16:23:49.266Z,11.26
2019-03-22T16:26:20.825Z,11.16
2019-03-22T16:28:54.214Z,11.04
2019-03-22T16:31:23.005Z,11.09
2019-03-22T16:33:54.736Z,11.09
2019-03-22T16:36:23.752Z,10.92
2019-03-22T16:38:52.643Z,10.84
2019-03-22T16:41:25.487Z,10.71
2019-03-22T16:43:55.562Z,10.72
2019-03-22T16:46:33.039Z,10.73
2019-03-22T16:49:05.671Z,10.60
2019-03-22T16:51:43.733Z,10.63
2019-03-22T16:54:12.944Z,10.52
2019-03-22T16:56:42.119Z,10.28
2019-03-22T16:59:16.618Z,10.28
2019-03-22T17:01:49.526Z,10.23
2019-03-22T17:04:18.214Z,10.06
2019-03-22T17:06:46.997Z,10.00
2019-03-22T17:09:15.684Z,10.01
2019-03-22T17:11:44.470Z,9.91
2019-03-22T17:14:13.155Z,9.79
2019-03-22T17:16:41.806Z,9.74
2019-03-22T17:19:10.868Z,9.74
2019-03-22T17:21:40.647Z,9.71
2019-03-22T17:24:09.333Z,9.60
2019-03-22T17:26:38.019Z,9.57
2019-03-22T17:29:06.806Z,9.52
2019-03-22T17:31:35.389Z,9.47
2019-03-22T17:34:13.813Z,9.47
2019-03-22T17:36:34.399Z,9.49
2019-03-22T17:39:04.932Z,9.40
2019-03-22T17:41:33.718Z,9.25
2019-03-22T17:44:02.507Z,9.25
2019-03-22T17:46:31.193Z,9.23
2019-03-22T17:48:59.827Z,9.21
2019-03-22T17:51:30.190Z,9.19
2019-03-22T17:53:58.887Z,9.14
2019-03-22T17:56:27.547Z,9.10
2019-03-22T17:58:56.259Z,9.09
2019-03-22T18:01:24.944Z,9.07
2019-03-22T18:03:53.736Z,8.99
2019-03-22T18:06:22.315Z,9.04
2019-03-22T18:08:51.104Z,8.97
2019-03-22T18:11:19.789Z,8.88
2019-03-22T18:13:48.583Z,8.89
2019-03-22T18:16:17.263Z,8.82
2019-03-22T18:18:45.948Z,8.86
2019-03-22T18:21:14.740Z,8.78
2019-03-22T18:23:43.526Z,8.87
2019-03-22T18:26:12.212Z,8.75
2019-03-22T18:28:41.000Z,8.67
2019-03-22T18:31:10.607Z,8.69
2019-03-22T18:33:39.294Z,8.70
2019-03-22T18:36:08.025Z,8.66
2019-03-22T18:38:37.144Z,8.64
2019-03-22T18:41:05.867Z,8.60
2019-03-22T18:43:34.565Z,8.56
2019-03-22T18:46:03.385Z,8.57
2019-03-22T18:48:32.235Z,8.52
2019-03-22T18:51:00.894Z,8.52
2019-03-22T18:53:29.812Z,8.57
2019-03-22T18:55:58.498Z,8.52
2019-03-22T18:58:27.190Z,8.41
2019-03-22T19:00:55.877Z,8.38
2019-03-22T19:03:24.550Z,8.49
2019-03-22T19:05:53.546Z,8.61
2019-03-22T19:08:22.331Z,8.54
2019-03-22T19:10:51.120Z,8.56
2019-03-22T19:13:19.908Z,8.52
2019-03-22T19:15:48.695Z,8.49
2019-03-22T19:18:17.483Z,8.46
2019-03-22T19:20:46.281Z,8.46
2019-03-22T19:23:16.901Z,8.50
2019-03-22T19:25:45.486Z,8.47
2019-03-22T19:28:14.171Z,8.50
2019-03-22T19:30:42.961Z,8.50
2019-03-22T19:33:11.748Z,8.46
2019-03-22T19:35:40.437Z,8.45
2019-03-22T19:38:09.222Z,8.54
2019-03-22T19:40:38.008Z,8.48
2019-03-22T19:43:06.745Z,8.45
2019-03-22T19:45:35.489Z,8.39
2019-03-22T19:48:04.271Z,8.39
2019-03-22T19:50:33.058Z,8.38
2019-03-22T19:53:01.744Z,8.40
2019-03-22T19:55:30.533Z,8.34
2019-03-22T19:57:59.221Z,8.23
2019-03-22T20:00:27.905Z,8.24
2019-03-22T20:02:56.590Z,8.24
2019-03-22T20:05:32.752Z,8.27
2019-03-22T20:08:02.061Z,8.26
2019-03-22T20:10:31.247Z,8.21
2019-03-22T20:13:00.243Z,8.18
2019-03-22T20:15:28.933Z,8.20
2019-03-22T20:17:57.615Z,8.13
2019-03-22T20:20:26.405Z,8.13
2019-03-22T20:22:55.084Z,8.09
2019-03-22T20:25:23.773Z,8.07
2019-03-22T20:27:52.560Z,8.05
2019-03-22T20:30:21.555Z,8.06
2019-03-22T20:32:50.342Z,7.95
2019-03-22T20:35:19.034Z,7.94
2019-03-22T20:37:50.687Z,7.95
2019-03-22T20:40:20.068Z,7.97
2019-03-22T20:42:48.771Z,7.99
2019-03-22T20:45:23.952Z,7.96
2019-03-22T20:47:47.985Z,7.91
2019-03-22T20:50:16.875Z,7.87
2019-03-22T20:52:45.561Z,7.92
2019-03-22T20:55:14.720Z,7.88
2019-03-22T20:57:43.444Z,7.78
2019-03-22T21:00:14.335Z,7.83
2019-03-22T21:02:43.073Z,7.84
2019-03-22T21:05:11.959Z,7.82
2019-03-22T21:07:40.648Z,7.88
2019-03-22T21:10:10.601Z,7.78
2019-03-22T21:12:39.246Z,7.68
2019-03-22T21:15:11.210Z,7.62
2019-03-22T21:17:39.898Z,7.69
2019-03-22T21:20:10.420Z,7.63
2019-03-22T21:22:39.109Z,7.66
2019-03-22T21:25:09.019Z,7.54
2019-03-22T21:27:37.709Z,7.57
2019-03-22T21:30:11.618Z,7.54
2019-03-22T21:32:45.289Z,7.54
2019-03-22T21:35:21.625Z,7.43
2019-03-22T21:37:41.057Z,7.35
2019-03-22T21:40:11.275Z,7.34
2019-03-22T21:42:40.065Z,7.27
2019-03-22T21:45:09.868Z,7.30
2019-03-22T21:47:38.507Z,7.36
2019-03-22T21:50:08.582Z,7.24
2019-03-22T21:52:37.265Z,7.27
2019-03-22T21:55:07.896Z,7.27
2019-03-22T21:57:36.581Z,7.16
2019-03-22T22:00:10.616Z,7.21
2019-03-22T22:02:39.873Z,7.17
2019-03-22T22:05:09.602Z,6.99
2019-03-22T22:07:38.286Z,6.98
2019-03-22T22:10:11.068Z,6.77
2019-03-22T22:12:39.857Z,6.83
2019-03-22T22:15:11.106Z,6.75
2019-03-22T22:17:41.432Z,6.96
2019-03-22T22:20:10.639Z,6.87
2019-03-22T22:22:39.310Z,6.94
2019-03-22T22:25:08.534Z,6.96
2019-03-22T22:27:37.222Z,6.67
2019-03-22T22:30:11.125Z,6.76
2019-03-22T22:32:39.890Z,6.69
2019-03-22T22:35:09.606Z,6.82
2019-03-22T22:37:38.698Z,6.91
2019-03-22T22:40:09.849Z,6.65
2019-03-22T22:42:39.651Z,6.56
2019-03-22T22:45:10.900Z,6.73
2019-03-22T22:47:39.750Z,6.64
2019-03-22T22:50:12.663Z,6.76
2019-03-22T22:52:41.359Z,6.71
2019-03-22T22:55:10.619Z,6.75
2019-03-22T22:57:40.802Z,6.68
2019-03-22T23:00:14.489Z,6.70
2019-03-22T23:02:43.885Z,6.77
2019-03-22T23:05:12.980Z,6.71
2019-03-22T23:07:41.974Z,6.76
2019-03-22T23:10:12.734Z,6.74
2019-03-22T23:12:42.525Z,6.78
2019-03-22T23:15:11.511Z,6.63
2019-03-22T23:17:40.301Z,6.71
2019-03-22T23:20:10.303Z,6.72
2019-03-22T23:22:39.001Z,6.72
2019-03-22T23:25:07.893Z,6.68
2019-03-22T23:27:37.274Z,6.69
2019-03-22T23:30:08.439Z,6.65
2019-03-22T23:32:37.236Z,6.60
2019-03-22T23:35:07.040Z,6.56
2019-03-22T23:37:35.828Z,6.51
2019-03-22T23:40:06.253Z,6.55
2019-03-22T23:42:35.145Z,6.50
2019-03-22T23:45:07.720Z,6.51
2019-03-22T23:47:36.510Z,6.37
2019-03-22T23:50:07.657Z,6.22
2019-03-22T23:52:36.445Z,6.14
2019-03-22T23:55:08.302Z,6.25
2019-03-22T23:57:36.987Z,6.18
